createdAt,value
2018-09-23T00:01:37.246Z,11.40
2018-09-23T00:04:06.862Z,11.41
2018-09-23T00:06:36.238Z,11.37
2018-09-23T00:09:08.014Z,11.40
2018-09-23T00:11:37.382Z,11.43
2018-09-23T00:14:07.131Z,11.43
2018-09-23T00:16:36.501Z,11.37
2018-09-23T00:19:06.188Z,11.38
2018-09-23T00:21:36.246Z,11.38
2018-09-23T00:24:05.661Z,11.41
2018-09-23T00:26:35.024Z,11.44
2018-09-23T00:29:04.551Z,11.41
2018-09-23T00:31:34.344Z,11.40
2018-09-23T00:34:04.625Z,11.44
2018-09-23T00:36:33.988Z,11.39
2018-09-23T00:39:03.362Z,11.37
2018-09-23T00:41:32.775Z,11.38
2018-09-23T00:44:02.201Z,11.37
2018-09-23T00:46:31.709Z,11.41
2018-09-23T00:49:01.108Z,11.44
2018-09-23T00:51:30.455Z,11.43
2018-09-23T00:53:59.857Z,11.41
2018-09-23T00:56:29.814Z,11.43
2018-09-23T00:58:59.244Z,11.43
2018-09-23T01:01:28.637Z,11.43
2018-09-23T01:03:58.062Z,11.47
2018-09-23T01:06:27.445Z,11.47
2018-09-23T01:08:57.084Z,11.47
2018-09-23T01:11:26.517Z,11.53
2018-09-23T01:13:56.058Z,11.49
2018-09-23T01:16:25.433Z,11.55
2018-09-23T01:18:54.896Z,11.58
2018-09-23T01:21:24.283Z,11.55
2018-09-23T01:23:53.664Z,11.60
2018-09-23T01:26:23.094Z,11.54
2018-09-23T01:28:52.564Z,11.58
2018-09-23T01:31:22.613Z,11.59
2018-09-23T01:33:51.988Z,11.61
2018-09-23T01:36:21.375Z,11.61
2018-09-23T01:38:50.996Z,11.67
2018-09-23T01:41:20.371Z,11.67
2018-09-23T01:43:49.728Z,11.72
2018-09-23T01:46:19.188Z,11.67
2018-09-23T01:48:48.632Z,11.71
2018-09-23T01:51:18.142Z,11.69
2018-09-23T01:53:47.816Z,11.74
2018-09-23T01:56:17.166Z,11.72
2018-09-23T01:58:46.552Z,11.74
2018-09-23T02:01:16.148Z,11.74
2018-09-23T02:03:46.087Z,11.75
2018-09-23T02:06:15.704Z,11.79
2018-09-23T02:08:45.020Z,11.78
2018-09-23T02:11:14.472Z,11.76
2018-09-23T02:13:43.915Z,11.79
2018-09-23T02:16:13.421Z,11.74
2018-09-23T02:18:42.767Z,11.79
2018-09-23T02:21:12.153Z,11.82
2018-09-23T02:23:41.494Z,11.75
2018-09-23T02:26:10.933Z,11.77
2018-09-23T02:28:40.357Z,11.76
2018-09-23T02:31:09.740Z,11.79
2018-09-23T02:33:39.077Z,11.77
2018-09-23T02:36:08.595Z,11.78
2018-09-23T02:38:37.983Z,11.79
2018-09-23T02:41:07.355Z,11.78
2018-09-23T02:43:36.746Z,11.78
2018-09-23T02:46:06.140Z,11.78
2018-09-23T02:48:35.483Z,11.77
2018-09-23T02:51:04.906Z,11.74
2018-09-23T02:53:34.375Z,11.79
2018-09-23T02:56:03.780Z,11.75
2018-09-23T02:58:33.183Z,11.80
2018-09-23T03:01:02.529Z,11.79
2018-09-23T03:03:32.279Z,11.79
2018-09-23T03:08:43.021Z,11.71
2018-09-23T03:11:12.400Z,11.71
2018-09-23T03:13:41.755Z,11.77
2018-09-23T03:16:11.131Z,11.75
2018-09-23T03:18:40.682Z,11.79
2018-09-23T03:21:10.039Z,11.79
2018-09-23T03:23:39.399Z,11.76
2018-09-23T03:26:08.803Z,11.74
2018-09-23T03:28:38.147Z,11.71
2018-09-23T03:31:08.247Z,11.73
2018-09-23T03:33:37.573Z,11.73
2018-09-23T03:36:06.939Z,11.68
2018-09-23T03:38:36.343Z,11.74
2018-09-23T03:41:05.683Z,11.72
2018-09-23T03:43:35.014Z,11.69
2018-09-23T03:46:04.659Z,11.70
2018-09-23T03:48:33.991Z,11.70
2018-09-23T03:51:03.371Z,11.68
2018-09-23T03:53:32.748Z,11.73
2018-09-23T03:56:02.117Z,11.70
2018-09-23T03:58:31.529Z,11.77
2018-09-23T04:01:00.981Z,11.73
2018-09-23T04:03:30.368Z,11.73
2018-09-23T04:05:59.797Z,11.75
2018-09-23T04:08:29.646Z,11.72
2018-09-23T04:10:59.340Z,11.75
2018-09-23T04:13:29.187Z,11.77
2018-09-23T04:15:58.615Z,11.75
2018-09-23T04:18:27.974Z,11.79
2018-09-23T04:20:57.328Z,11.80
2018-09-23T04:23:26.991Z,11.77
2018-09-23T04:25:56.374Z,11.80
2018-09-23T04:28:25.751Z,11.79
2018-09-23T04:30:55.117Z,11.79
2018-09-23T04:33:24.461Z,11.76
2018-09-23T04:35:54.244Z,11.78
2018-09-23T04:38:23.726Z,11.78
2018-09-23T04:40:53.072Z,11.79
2018-09-23T04:43:22.414Z,11.83
2018-09-23T04:45:51.782Z,11.83
2018-09-23T04:48:21.373Z,11.80
2018-09-23T04:50:50.799Z,11.87
2018-09-23T04:53:20.199Z,11.87
2018-09-23T04:55:49.624Z,11.89
2018-09-23T04:58:19.152Z,11.85
2018-09-23T05:00:48.530Z,11.87
2018-09-23T05:03:17.917Z,11.89
2018-09-23T05:05:47.254Z,11.90
2018-09-23T05:08:16.597Z,11.91
2018-09-23T05:10:45.973Z,11.88
2018-09-23T05:13:15.328Z,11.98
2018-09-23T05:15:44.947Z,11.92
2018-09-23T05:18:14.292Z,11.96
2018-09-23T05:20:43.684Z,11.94
2018-09-23T05:23:13.035Z,11.90
2018-09-23T05:25:42.428Z,11.98
2018-09-23T05:28:11.779Z,11.97
2018-09-23T05:30:41.114Z,11.98
2018-09-23T05:33:10.467Z,12.01
2018-09-23T05:35:39.891Z,11.99
2018-09-23T05:38:09.284Z,11.98
2018-09-23T05:40:38.682Z,12.00
2018-09-23T05:43:08.071Z,12.00
2018-09-23T05:45:37.415Z,11.99
2018-09-23T05:48:06.843Z,12.03
2018-09-23T05:50:36.387Z,12.04
2018-09-23T05:53:05.811Z,12.00
2018-09-23T05:55:35.514Z,12.01
2018-09-23T05:58:04.838Z,12.09
2018-09-23T06:00:38.750Z,12.08
2018-09-23T06:03:08.610Z,12.10
2018-09-23T06:05:37.919Z,12.07
2018-09-23T06:08:07.347Z,12.06
2018-09-23T06:10:36.840Z,12.07
2018-09-23T06:13:06.175Z,12.08
2018-09-23T06:15:35.866Z,12.06
2018-09-23T06:18:05.583Z,12.10
2018-09-23T06:20:34.931Z,12.13
2018-09-23T06:23:04.583Z,12.09
2018-09-23T06:25:33.978Z,12.14
2018-09-23T06:28:03.383Z,12.20
2018-09-23T06:30:32.931Z,12.25
2018-09-23T06:33:02.367Z,12.27
2018-09-23T06:35:31.800Z,12.28
2018-09-23T06:38:01.152Z,12.33
2018-09-23T06:40:30.529Z,12.32
2018-09-23T06:43:00.523Z,12.35
2018-09-23T06:45:29.857Z,12.33
2018-09-23T06:47:59.228Z,12.38
2018-09-23T06:50:28.835Z,12.41
2018-09-23T06:52:58.593Z,12.41
2018-09-23T06:55:28.086Z,12.43
2018-09-23T06:57:57.576Z,12.46
2018-09-23T07:00:26.943Z,12.46
2018-09-23T07:02:56.328Z,12.49
2018-09-23T07:05:25.763Z,12.52
2018-09-23T07:07:55.579Z,12.56
2018-09-23T07:10:25.159Z,12.59
2018-09-23T07:12:54.905Z,12.59
2018-09-23T07:15:24.719Z,12.61
2018-09-23T07:17:54.091Z,12.76
2018-09-23T07:20:23.435Z,12.76
2018-09-23T07:22:52.989Z,12.77
2018-09-23T07:25:22.538Z,12.81
2018-09-23T07:27:51.907Z,12.83
2018-09-23T07:30:21.234Z,12.85
2018-09-23T07:32:50.635Z,12.87
2018-09-23T07:35:20.051Z,12.89
2018-09-23T07:37:49.409Z,12.95
2018-09-23T07:40:18.860Z,12.99
2018-09-23T07:42:48.756Z,12.92
2018-09-23T07:45:18.132Z,12.97
2018-09-23T07:47:47.788Z,13.03
2018-09-23T07:50:17.187Z,13.02
2018-09-23T07:52:46.595Z,13.12
2018-09-23T07:55:15.953Z,13.16
2018-09-23T07:57:46.132Z,13.16
2018-09-23T08:00:15.529Z,13.14
2018-09-23T08:02:44.860Z,13.19
2018-09-23T08:05:14.223Z,13.23
2018-09-23T08:07:43.770Z,13.20
2018-09-23T08:10:13.452Z,13.27
2018-09-23T08:12:42.976Z,13.28
2018-09-23T08:15:12.270Z,13.30
2018-09-23T08:17:41.691Z,13.25
2018-09-23T08:20:11.279Z,13.40
2018-09-23T08:22:40.535Z,13.39
2018-09-23T08:25:10.753Z,13.49
2018-09-23T08:27:40.042Z,13.48
2018-09-23T08:30:09.427Z,13.47
2018-09-23T08:32:38.807Z,13.53
2018-09-23T08:35:08.198Z,13.61
2018-09-23T08:37:37.588Z,13.63
2018-09-23T08:40:07.021Z,13.64
2018-09-23T08:42:36.421Z,13.66
2018-09-23T08:45:05.924Z,13.67
2018-09-23T08:47:35.329Z,13.64
2018-09-23T08:50:05.474Z,13.69
2018-09-23T08:52:34.896Z,13.71
2018-09-23T08:55:04.283Z,13.73
2018-09-23T08:57:33.666Z,13.63
2018-09-23T09:00:03.336Z,13.63
2018-09-23T09:02:32.857Z,13.61
2018-09-23T09:05:02.279Z,13.53
2018-09-23T09:07:31.670Z,13.55
2018-09-23T09:10:02.263Z,13.59
2018-09-23T09:12:31.686Z,13.67
2018-09-23T09:15:01.100Z,13.69
2018-09-23T09:17:30.656Z,13.70
2018-09-23T09:20:00.441Z,13.69
2018-09-23T09:22:30.124Z,13.65
2018-09-23T09:24:59.488Z,13.55
2018-09-23T09:27:28.991Z,13.51
2018-09-23T09:29:58.443Z,13.49
2018-09-23T09:32:27.803Z,13.48
2018-09-23T09:34:57.242Z,13.44
2018-09-23T09:37:27.499Z,13.50
2018-09-23T09:39:56.843Z,13.53
2018-09-23T09:42:26.288Z,13.50
2018-09-23T09:44:55.709Z,13.58
2018-09-23T09:47:25.114Z,13.58
2018-09-23T09:49:54.500Z,13.60
2018-09-23T09:52:23.891Z,13.66
2018-09-23T09:54:53.251Z,13.62
2018-09-23T09:57:22.806Z,13.55
2018-09-23T09:59:52.319Z,13.50
2018-09-23T10:02:21.763Z,13.49
2018-09-23T10:04:51.264Z,13.51
2018-09-23T10:07:20.752Z,13.51
2018-09-23T10:09:50.155Z,13.48
2018-09-23T10:12:19.980Z,13.61
2018-09-23T10:14:49.379Z,13.63
2018-09-23T10:17:19.494Z,13.63
2018-09-23T10:19:48.896Z,13.62
2018-09-23T10:22:18.352Z,13.59
2018-09-23T10:24:47.952Z,13.55
2018-09-23T10:27:17.399Z,13.57
2018-09-23T10:29:47.185Z,13.53
2018-09-23T10:32:16.579Z,13.50
2018-09-23T10:34:46.186Z,13.41
2018-09-23T10:37:15.659Z,13.38
2018-09-23T10:39:45.191Z,13.34
2018-09-23T10:42:14.629Z,13.27
2018-09-23T10:44:44.107Z,13.23
2018-09-23T10:47:13.607Z,13.14
2018-09-23T10:49:43.418Z,13.11
2018-09-23T10:52:12.935Z,13.02
2018-09-23T10:54:48.879Z,12.92
2018-09-23T10:57:18.381Z,12.86
2018-09-23T10:59:47.907Z,12.76
2018-09-23T11:02:17.337Z,12.83
2018-09-23T11:04:46.724Z,12.85
2018-09-23T11:07:16.104Z,12.91
2018-09-23T11:09:45.630Z,12.99
2018-09-23T11:12:15.015Z,13.02
2018-09-23T11:14:45.025Z,13.10
2018-09-23T11:17:14.724Z,13.16
2018-09-23T11:19:44.156Z,13.25
2018-09-23T11:22:13.648Z,13.22
2018-09-23T11:24:43.282Z,13.23
2018-09-23T11:27:12.658Z,13.33
2018-09-23T11:29:42.154Z,13.27
2018-09-23T11:32:11.770Z,13.27
2018-09-23T11:34:41.615Z,13.29
2018-09-23T11:37:11.060Z,13.18
2018-09-23T11:39:40.467Z,13.23
2018-09-23T11:42:09.866Z,13.28
2018-09-23T11:44:39.481Z,13.09
2018-09-23T11:47:09.223Z,13.04
2018-09-23T11:49:38.698Z,12.97
2018-09-23T11:52:08.055Z,12.91
2018-09-23T11:54:38.000Z,12.84
2018-09-23T11:57:07.568Z,12.80
2018-09-23T11:59:36.987Z,12.77
2018-09-23T12:02:06.912Z,12.75
2018-09-23T12:04:36.947Z,12.76
2018-09-23T12:07:06.378Z,12.72
2018-09-23T12:09:35.932Z,12.63
2018-09-23T12:12:06.316Z,12.60
2018-09-23T12:14:36.130Z,12.56
2018-09-23T12:17:05.559Z,12.59
2018-09-23T12:19:34.991Z,12.54
2018-09-23T12:22:04.519Z,12.52
2018-09-23T12:27:16.584Z,12.53
2018-09-23T12:29:46.207Z,12.56
2018-09-23T12:32:16.243Z,12.50
2018-09-23T12:34:46.275Z,12.49
2018-09-23T12:37:15.742Z,12.47
2018-09-23T12:39:46.455Z,12.49
2018-09-23T12:42:16.357Z,12.40
2018-09-23T12:44:45.736Z,12.38
2018-09-23T12:47:15.377Z,12.32
2018-09-23T12:49:44.828Z,12.29
2018-09-23T12:52:14.321Z,12.25
2018-09-23T12:54:44.042Z,12.17
2018-09-23T12:57:13.500Z,12.07
2018-09-23T12:59:43.045Z,11.96
2018-09-23T13:02:13.468Z,11.85
2018-09-23T13:04:43.022Z,11.85
2018-09-23T13:07:12.580Z,11.87
2018-09-23T13:09:42.261Z,11.88
2018-09-23T13:12:11.711Z,11.88
2018-09-23T13:14:41.174Z,11.88
2018-09-23T13:17:10.629Z,11.93
2018-09-23T13:19:40.005Z,11.84
2018-09-23T13:22:09.393Z,11.85
2018-09-23T13:24:38.771Z,11.80
2018-09-23T13:27:08.922Z,11.80
2018-09-23T13:29:38.869Z,11.79
2018-09-23T13:32:08.447Z,11.82
2018-09-23T13:34:37.975Z,11.77
2018-09-23T13:37:08.369Z,11.72
2018-09-23T13:39:37.787Z,11.76
2018-09-23T13:42:07.915Z,11.78
2018-09-23T13:44:37.397Z,11.80
2018-09-23T13:47:06.980Z,11.85
2018-09-23T13:49:36.408Z,11.82
2018-09-23T13:52:05.877Z,11.84
2018-09-23T13:54:35.569Z,11.85
2018-09-23T13:57:05.029Z,11.88
2018-09-23T13:59:34.407Z,11.89
2018-09-23T14:02:04.458Z,11.96
2018-09-23T14:04:34.153Z,11.94
2018-09-23T14:07:03.734Z,11.93
2018-09-23T14:09:33.484Z,11.94
2018-09-23T14:12:02.994Z,11.91
2018-09-23T14:14:32.431Z,11.92
2018-09-23T14:17:01.927Z,11.95
2018-09-23T14:19:31.393Z,11.96
2018-09-23T14:22:00.894Z,11.96
2018-09-23T14:24:30.493Z,11.91
2018-09-23T14:26:59.942Z,11.87
2018-09-23T14:29:30.064Z,11.80
2018-09-23T14:32:00.482Z,11.82
2018-09-23T14:34:30.120Z,11.81
2018-09-23T14:37:01.206Z,11.75
2018-09-23T14:39:31.652Z,11.71
2018-09-23T14:42:01.218Z,11.65
2018-09-23T14:44:30.550Z,11.71
2018-09-23T14:46:59.967Z,11.73
2018-09-23T14:49:29.371Z,11.67
2018-09-23T14:51:58.916Z,11.66
2018-09-23T14:54:28.405Z,11.61
2018-09-23T14:56:57.848Z,11.56
2018-09-23T14:59:27.951Z,11.58
2018-09-23T15:01:57.641Z,11.54
2018-09-23T15:04:27.962Z,11.62
2018-09-23T15:06:57.635Z,11.62
2018-09-23T15:09:27.369Z,11.64
2018-09-23T15:11:56.874Z,11.57
2018-09-23T15:14:26.315Z,11.41
2018-09-23T15:16:55.886Z,11.38
2018-09-23T15:19:25.332Z,11.28
2018-09-23T15:21:55.264Z,11.28
2018-09-23T15:24:24.927Z,11.28
2018-09-23T15:26:54.424Z,11.35
2018-09-23T15:29:24.063Z,11.40
2018-09-23T15:31:54.461Z,11.43
2018-09-23T15:34:24.636Z,11.43
2018-09-23T15:36:54.267Z,11.41
2018-09-23T15:39:23.899Z,11.34
2018-09-23T15:41:53.972Z,11.34
2018-09-23T15:44:23.518Z,11.30
2018-09-23T15:46:53.444Z,11.27
2018-09-23T15:49:23.004Z,11.27
2018-09-23T15:54:34.540Z,11.22
2018-09-23T15:57:04.247Z,11.20
2018-09-23T15:59:33.928Z,11.15
2018-09-23T16:02:03.411Z,11.17
2018-09-23T16:04:33.026Z,11.18
2018-09-23T16:07:02.416Z,11.14
2018-09-23T16:09:32.122Z,11.07
2018-09-23T16:12:01.669Z,10.99
2018-09-23T16:14:31.196Z,10.94
2018-09-23T16:17:00.651Z,10.89
2018-09-23T16:19:30.162Z,10.83
2018-09-23T16:21:59.775Z,10.77
2018-09-23T16:24:29.454Z,10.80
2018-09-23T16:26:58.823Z,10.78
2018-09-23T16:29:28.772Z,10.66
2018-09-23T16:31:58.207Z,10.63
2018-09-23T16:34:27.595Z,10.62
2018-09-23T16:36:57.551Z,10.59
2018-09-23T16:39:27.388Z,10.49
2018-09-23T16:41:57.075Z,10.47
2018-09-23T16:44:26.443Z,10.53
2018-09-23T16:46:55.846Z,10.46
2018-09-23T16:49:25.327Z,10.42
2018-09-23T16:51:54.754Z,10.40
2018-09-23T16:54:24.572Z,10.39
2018-09-23T16:56:53.970Z,10.43
2018-09-23T16:59:23.374Z,10.35
2018-09-23T17:01:52.803Z,10.41
2018-09-23T17:04:22.179Z,10.38
2018-09-23T17:06:51.560Z,10.35
2018-09-23T17:09:21.019Z,10.39
2018-09-23T17:11:50.403Z,10.33
2018-09-23T17:14:19.818Z,10.29
2018-09-23T17:16:49.306Z,10.27
2018-09-23T17:19:18.796Z,10.21
2018-09-23T17:21:51.058Z,10.22
2018-09-23T17:24:20.544Z,10.18
2018-09-23T17:26:50.516Z,10.19
2018-09-23T17:29:20.218Z,10.16
2018-09-23T17:31:49.620Z,10.16
2018-09-23T17:34:19.111Z,10.17
2018-09-23T17:36:49.064Z,10.15
2018-09-23T17:39:18.607Z,10.17
2018-09-23T17:41:48.060Z,10.18
2018-09-23T17:44:17.427Z,10.17
2018-09-23T17:46:47.307Z,10.20
2018-09-23T17:49:16.769Z,10.17
2018-09-23T17:51:46.195Z,10.15
2018-09-23T17:54:15.664Z,10.16
2018-09-23T17:56:45.479Z,10.20
2018-09-23T17:59:14.956Z,10.14
2018-09-23T18:01:44.432Z,10.21
2018-09-23T18:04:13.902Z,10.17
2018-09-23T18:06:44.220Z,10.21
2018-09-23T18:09:13.619Z,10.22
2018-09-23T18:11:43.097Z,10.18
2018-09-23T18:14:12.464Z,10.19
2018-09-23T18:16:41.870Z,10.23
2018-09-23T18:19:11.239Z,10.23
2018-09-23T18:21:41.634Z,10.21
2018-09-23T18:24:11.033Z,10.25
2018-09-23T18:26:40.485Z,10.27
2018-09-23T18:29:09.907Z,10.26
2018-09-23T18:31:39.384Z,10.27
2018-09-23T18:34:08.815Z,10.24
2018-09-23T18:36:38.468Z,10.21
2018-09-23T18:39:09.531Z,10.21
2018-09-23T18:41:39.180Z,10.23
2018-09-23T18:44:08.586Z,10.25
2018-09-23T18:46:38.041Z,10.26
2018-09-23T18:49:07.719Z,10.20
2018-09-23T18:51:37.231Z,10.16
2018-09-23T18:54:11.882Z,10.13
2018-09-23T18:56:41.529Z,10.09
2018-09-23T18:59:10.959Z,10.07
2018-09-23T19:01:40.365Z,10.04
2018-09-23T19:04:09.738Z,10.00
2018-09-23T19:06:39.367Z,10.03
2018-09-23T19:09:09.304Z,10.00
2018-09-23T19:11:38.887Z,9.97
2018-09-23T19:14:08.345Z,9.94
2018-09-23T19:16:37.877Z,9.96
2018-09-23T19:19:07.399Z,9.92
2018-09-23T19:21:36.880Z,9.90
2018-09-23T19:24:06.298Z,9.85
2018-09-23T19:26:35.720Z,9.85
2018-09-23T19:29:05.108Z,9.86
2018-09-23T19:31:34.858Z,9.82
2018-09-23T19:34:04.266Z,9.84
2018-09-23T19:36:33.683Z,9.83
2018-09-23T19:39:03.588Z,9.85
2018-09-23T19:41:33.082Z,9.91
2018-09-23T19:44:03.134Z,9.86
2018-09-23T19:46:33.384Z,9.82
2018-09-23T19:49:02.815Z,9.85
2018-09-23T19:51:32.501Z,9.85
2018-09-23T19:54:02.704Z,9.85
2018-09-23T19:59:16.713Z,9.90
2018-09-23T20:01:46.200Z,9.92
2018-09-23T20:04:15.717Z,9.93
2018-09-23T20:06:45.376Z,9.97
2018-09-23T20:09:14.920Z,9.99
2018-09-23T20:11:45.332Z,9.98
2018-09-23T20:14:15.300Z,10.01
2018-09-23T20:16:44.882Z,9.99
2018-09-23T20:19:14.402Z,9.98
2018-09-23T20:21:44.651Z,9.95
2018-09-23T20:24:14.312Z,9.99
2018-09-23T20:26:45.260Z,9.88
2018-09-23T20:29:14.690Z,9.89
2018-09-23T20:31:44.142Z,9.89
2018-09-23T20:34:13.752Z,9.92
2018-09-23T20:36:43.193Z,9.90
2018-09-23T20:39:12.789Z,9.90
2018-09-23T20:41:42.495Z,9.91
2018-09-23T20:44:11.930Z,9.90
2018-09-23T20:46:41.680Z,9.89
2018-09-23T20:49:11.816Z,9.94
2018-09-23T20:51:42.121Z,9.92
2018-09-23T20:54:11.849Z,9.95
2018-09-23T20:56:41.750Z,9.96
2018-09-23T20:59:11.273Z,9.93
2018-09-23T21:01:40.863Z,9.92
2018-09-23T21:04:10.309Z,9.93
2018-09-23T21:06:40.923Z,9.92
2018-09-23T21:09:11.516Z,9.92
2018-09-23T21:11:41.019Z,9.91
2018-09-23T21:14:10.516Z,9.89
2018-09-23T21:16:40.104Z,9.88
2018-09-23T21:19:09.504Z,9.84
2018-09-23T21:21:38.937Z,9.85
2018-09-23T21:24:08.482Z,9.85
2018-09-23T21:26:37.943Z,9.83
2018-09-23T21:29:07.440Z,9.79
2018-09-23T21:31:36.887Z,9.76
2018-09-23T21:34:06.411Z,9.80
2018-09-23T21:36:35.821Z,9.78
2018-09-23T21:39:07.311Z,9.75
2018-09-23T21:41:36.882Z,9.73
2018-09-23T21:44:07.020Z,9.68
2018-09-23T21:46:36.448Z,9.63
2018-09-23T21:49:06.024Z,9.65
2018-09-23T21:51:35.643Z,9.63
2018-09-23T21:54:05.188Z,9.63
2018-09-23T21:56:34.950Z,9.59
2018-09-23T21:59:04.697Z,9.56
2018-09-23T22:01:34.189Z,9.51
2018-09-23T22:04:03.864Z,9.48
2018-09-23T22:06:33.339Z,9.49
2018-09-23T22:09:03.074Z,9.51
2018-09-23T22:11:32.609Z,9.46
2018-09-23T22:14:02.060Z,9.46
2018-09-23T22:16:31.568Z,9.40
2018-09-23T22:19:01.006Z,9.36
2018-09-23T22:21:30.568Z,9.38
2018-09-23T22:23:59.915Z,9.40
2018-09-23T22:26:29.337Z,9.38
2018-09-23T22:28:58.740Z,9.36
2018-09-23T22:31:28.359Z,9.27
2018-09-23T22:33:57.793Z,9.29
2018-09-23T22:36:27.153Z,9.26
2018-09-23T22:38:56.500Z,9.21
2018-09-23T22:41:25.842Z,9.18
2018-09-23T22:43:55.571Z,9.18
2018-09-23T22:46:24.944Z,9.16
2018-09-23T22:48:54.401Z,9.13
2018-09-23T22:51:23.742Z,9.13
2018-09-23T22:53:53.186Z,9.18
2018-09-23T22:56:22.589Z,9.12
2018-09-23T22:58:51.926Z,9.07
2018-09-23T23:01:21.283Z,9.01
2018-09-23T23:03:50.646Z,9.04
2018-09-23T23:06:19.987Z,9.03
2018-09-23T23:08:49.368Z,9.01
2018-09-23T23:11:18.724Z,8.99
2018-09-23T23:13:48.213Z,9.01
2018-09-23T23:16:17.615Z,8.98
2018-09-23T23:18:46.959Z,8.90
2018-09-23T23:21:16.416Z,8.89
2018-09-23T23:23:45.807Z,8.81
2018-09-23T23:26:15.319Z,8.84
2018-09-23T23:28:44.912Z,8.82
2018-09-23T23:31:14.693Z,8.81
2018-09-23T23:33:44.056Z,8.79
2018-09-23T23:36:13.453Z,8.78
2018-09-23T23:38:42.824Z,8.82
2018-09-23T23:41:12.270Z,8.77
2018-09-23T23:43:41.672Z,8.77
2018-09-23T23:46:11.530Z,8.72
2018-09-23T23:48:40.876Z,8.78
2018-09-23T23:51:10.293Z,8.69
2018-09-23T23:53:39.665Z,8.77
2018-09-23T23:56:09.267Z,8.74
2018-09-23T23:58:38.571Z,8.75
